Crestview, FL

11:56 AM CST on February 09, 2016 (GMT -0600)
Sikes | | Change Station
CLOSE
Current Station
Airport
Location: Crestview,
Elevation: 213 ft
Nearby Weather Stations
Active Advisory: Wind Advisory

Elev 213 ft 30.78 °N, 86.52 °W | Updated 3 minutes ago

Clear
Clear
49 °F
Feels Like 49 °F
N
18
Wind Variable Wind from WSW
Gusts 30 mph

Today
High -- | Low -- °F
--% Chance of Precip.
Yesterday
High -- | Low -- °F
Precip. -- in
Pressure 30.02 in
Visibility 10.0 miles
Clouds Clear
Dew Point 14 °F
Humidity 25%
Rainfall 0.00 in
Snow Depth Not available.
6:32 AM 5:28 PM
New Moon, 2% visible
METAR KCEW 091753Z AUTO 25016G26KT 10SM CLR 09/M10 A3002 RMK AO2 PK WND 25026/1750 SLP165 T00941100 10094 20017 58017
Pressure 30.02 in
Visibility 10.0 miles
Clouds Clear
Dew Point 14 °F
Humidity 25%
Rainfall 0.00 in
Snow Depth Not available.
6:32 AM 5:28 PM
New Moon, 2% visible
METAR KCEW 091753Z AUTO 25016G26KT 10SM CLR 09/M10 A3002 RMK AO2 PK WND 25026/1750 SLP165 T00941100 10094 20017 58017

10-Day Weather Forecast

Almanac

Astronomy

Feb. 09, 2016 Rise Set
Actual Time
Civil Twilight
Nautical Twilight
Astronomical Twilight
Moon
Length of Visible Light
Length of Day
Tomorrow will be .
, % of the Moon is Illuminated

Today's Extremes

State Highs State Lows

Community

WunderPhotos

Upload Photos

1,891,650 photos uploaded!

WunderBlog® & News

Nearby

Air Quality

  Air Quality AQ Index Pollutant
Not available.

Snow Depth

Station Depth Elevation

Earthquake Activity

City Distance Mag. Time & Date
Minimum magnitude displayed is 2.5.

Coastal Water Temperatures

Place Temperature

Stations

Nearby Weather Stations

Station Location Temp. Windchill Dew Point Humidity Wind Precip. Elev Updated Type
                   

Watches & Warnings

Wind Advisory
Issued: 9:22 AM CST Feb. 9, 2016 – National Weather Service

... Wind Advisory remains in effect until 5 PM CST this
afternoon...

* timing... mid morning through late afternoon.

* Winds... west to northwest winds increasing to 20 to 25 mph
with frequent higher gusts in excess of 30 mph.

Precautionary/preparedness actions...

A Wind Advisory means that winds of 30 to 39 mph are expected.
Winds this strong can make driving difficult... especially for
high profile vehicles. Use extra caution.